• Join FlightAware (Why Join?)
  • Login
  • US Flag 
12:21AM EDT


 

Airport Tracker/Info


-or-


 

Live Flight TrackerFlight Track Log ✈ GJS3710 ✈ 25-Apr-2013 ✈ KAUS - KORD

Flight Track Log - Related Links

Times and Time Zones

All times are in EDT time to prevent confusion due to time zone crossing. See the GJS3710 flight status page for this flight to view local times or setup timezone preferences in your user account.

Time Position Orientation Groundspeed Altitude Reporting Facility
EDT Latitude Longitude Course Direction KTS MPH feet Rate Location/Type
04:03PM 30.3367 -97.7436 326° Northwest 241 277 5,400  Level Houston Center
04:04PM 30.5493 -97.6473 323° Northwest  Level FlightAware Approximate
04:04PM 30.4086 -97.7864 333° Northwest 277 319 7,900  Level Houston Center
04:05PM 30.6387 -97.7254 323° Northwest  Level FlightAware Approximate
04:06PM 30.7321 -97.7953 326° Northwest  Level FlightAware Approximate
04:06PM 30.5715 -97.6693 32° Northeast  Level Estimated
04:06PM 30.5758 -97.8606 32° Northeast 322 371 12,000  Level Houston Center
04:07PM 30.8317 -97.8726 326° Northwest  Level FlightAware Approximate
04:07PM 30.6689 -97.9031 339° North 345 397 14,100  Level Houston Center
04:08PM 30.9313 -97.9501 326° Northwest  Level FlightAware Approximate
04:08PM 30.7636 -97.9461 339° North 356 410 16,100  Level Houston Center
04:09PM 30.8586 -97.9903 338° Northwest 360 414 17,700 1,740 Climbing Houston Center
04:10PM 30.9236 -98.0236 336° Northwest 356 410 18,800 1,620 Climbing Fort Worth Center
04:11PM 31.0236 -98.0678 339° North 378 435 20,200 1,320 Climbing Fort Worth Center
04:12PM 31.1153 -98.1122 337° Northwest 387 445 21,500 1,380 Climbing Fort Worth Center
04:13PM 31.2239 -98.1228 355° North 393 452 23,000 1,260 Climbing Fort Worth Center
04:14PM 31.3328 -98.0603 26° Northeast 396 456 24,100 1,020 Climbing Fort Worth Center
04:15PM 31.4417 -98.0003 25° Northeast 416 479 25,100 960 Climbing Fort Worth Center
04:16PM 31.5692 -97.9303 25° Northeast 437 503 26,100 900 Climbing Fort Worth Center
04:17PM 31.6864 -97.8650 25° Northeast 452 520 27,000 840 Climbing Fort Worth Center
04:18PM 31.8036 -97.7994 25° Northeast 463 533 27,800 780 Climbing Fort Worth Center
04:19PM 31.9247 -97.7317 25° Northeast 463 533 28,600 840 Climbing Fort Worth Center
04:20PM 32.0439 -97.6608 27° Northeast 468 539 29,500 780 Climbing Fort Worth Center
04:21PM 32.1547 -97.5997 25° Northeast 473 544 30,200 780 Climbing Fort Worth Center
04:22PM 32.2781 -97.5289 26° Northeast 478 550 31,100 900 Climbing Fort Worth Center
04:23PM 32.3992 -97.4600 26° Northeast 483 556 32,100 960 Climbing Fort Worth Center
04:24PM 32.5244 -97.3889 26° Northeast 483 556 33,100 960 Climbing Fort Worth Center
04:25PM 32.6414 -97.3222 26° Northeast 478 550 34,100 780 Climbing Fort Worth Center
04:26PM 32.7581 -97.2528 27° Northeast 468 539 34,700 420 Climbing Fort Worth Center
04:27PM 32.8936 -97.1733 26° Northeast 474 545 35,000 300 Climbing Fort Worth Center
04:28PM 33.0019 -97.0989 30° Northeast 488 562 35,300 480 Climbing Fort Worth Center
04:29PM 33.1269 -97.0142 30° Northeast 513 590 36,000 780 Climbing Fort Worth Center
04:30PM 33.2436 -96.9317 31° Northeast 493 567 36,900 780 Climbing Fort Worth Center
04:31PM 33.3603 -96.8514 30° Northeast 487 560 37,600 600 Climbing Fort Worth Center
04:32PM 33.4725 -96.7708 31° Northeast 474 545 38,100 480 Climbing Fort Worth Center
04:33PM 33.5869 -96.6953 29° Northeast 467 537 38,600 420 Climbing Fort Worth Center
04:34PM 33.6992 -96.6119 32° Northeast 467 537 39,000 180 Climbing Fort Worth Center
04:35PM 33.8258 -96.5233 30° Northeast 467 537 39,000  Level Fort Worth Center
04:36PM 33.9400 -96.4397 31° Northeast 472 543 39,000  Level Fort Worth Center
04:37PM 34.0564 -96.3606 29° Northeast 472 543 39,000  Level Fort Worth Center
04:38PM 34.1536 -96.2867 32° Northeast 464 534 39,000  Level Fort Worth Center
04:39PM 34.2719 -96.2047 30° Northeast 469 540 39,000  Level Fort Worth Center
04:40PM 34.3900 -96.1175 31° Northeast 482 555 39,000  Level Fort Worth Center
04:41PM 34.5081 -96.0300 31° Northeast 482 555 39,000  Level Fort Worth Center
04:42PM 34.6281 -95.9447 30° Northeast 487 560 39,000  Level Fort Worth Center
04:43PM 34.7439 -95.8569 32° Northeast 487 560 39,000  Level Fort Worth Center
04:44PM 34.8758 -95.7558 32° Northeast 498 573 39,000  Level Fort Worth Center
04:45PM 34.9811 -95.6625 36° Northeast 504 580 39,000  Level Fort Worth Center
04:46PM 35.0900 -95.5561 39° Northeast 504 580 39,000  Level Fort Worth Center
04:47PM 35.2033 -95.4522 37° Northeast 504 580 39,000  Level Fort Worth Center
04:47PM 35.2992 -95.3611 38° Northeast 522 601 39,000  Level Memphis Center
04:48PM 35.4119 -95.2533 38° Northeast 528 608 39,000  Level Memphis Center
04:49PM 35.5244 -95.1453 38° Northeast 523 602 39,000  Level Memphis Center
04:50PM 35.6478 -95.0269 38° Northeast 517 595 39,000  Level Memphis Center
04:51PM 35.7603 -94.9183 38° Northeast 517 595 39,000  Level Memphis Center
04:52PM 35.8728 -94.8067 39° Northeast 512 589 39,000  Level Memphis Center
04:53PM 35.9831 -94.6997 38° Northeast 512 589 39,000  Level Memphis Center
04:54PM 36.0953 -94.5903 38° Northeast 507 583 39,000  Level Memphis Center
04:56PM 36.2561 -94.4342 38° Northeast 509 586 39,000  Level Kansas City Center
04:57PM 36.3867 -94.3033 39° Northeast 505 581 39,000  Level Kansas City Center
04:58PM 36.5008 -94.1931 38° Northeast 513 590 39,000  Level Kansas City Center
04:59PM 36.6108 -94.0850 38° Northeast 505 581 39,000  Level Kansas City Center
05:00PM 36.7208 -93.9742 39° Northeast 507 583 39,000  Level Kansas City Center
05:01PM 36.8306 -93.8644 39° Northeast 506 582 39,000  Level Kansas City Center
05:03PM 36.9524 -93.7407 39° Northeast  Level FlightAware Approximate
05:03PM 37.0636 -93.6264 39° Northeast 505 581 39,000  Level Kansas City Center
05:04PM 37.1767 -93.5156 38° Northeast 511 588 39,000  Level Kansas City Center
05:05PM 37.2883 -93.4056 38° Northeast 510 587 39,000  Level Kansas City Center
05:06PM 37.4000 -93.2964 38° Northeast 508 585 39,000  Level Kansas City Center
05:08PM 37.5083 -93.1926 37° Northeast  Level FlightAware Approximate
05:08PM 37.6489 -93.0672 37° Northeast 501 577 39,000  Level Kansas City Center
05:10PM 37.7603 -92.9611 37° Northeast 499 574 39,000  Level Kansas City Center
05:11PM 37.8722 -92.8558 37° Northeast 497 572 39,000  Level Kansas City Center
05:12PM 37.9850 -92.7522 36° Northeast 495 570 39,000  Level Kansas City Center
05:13PM 38.0981 -92.6431 37° Northeast 502 578 39,000  Level Kansas City Center
05:14PM 38.2111 -92.5381 36° Northeast 495 570 39,000  Level Kansas City Center
05:15PM 38.3225 -92.4325 37° Northeast 492 566 39,000  Level Kansas City Center
05:16PM 38.4325 -92.3269 37° Northeast 491 565 39,000  Level Kansas City Center
05:17PM 38.5417 -92.2200 37° Northeast 491 565 39,000  Level Kansas City Center
05:18PM 38.6522 -92.1153 36° Northeast 492 566 39,000  Level Kansas City Center
05:19PM 38.7842 -91.9889 37° Northeast 492 566 39,000  Level Kansas City Center
05:20PM 38.8925 -91.8833 37° Northeast 489 563 39,000  Level Kansas City Center
05:21PM 39.0000 -91.7794 37° Northeast 483 556 39,000  Level Kansas City Center
05:22PM 39.0981 -91.6822 38° Northeast 482 555 39,000 -300 Level Kansas City Center
05:23PM 39.2069 -91.5767 37° Northeast 485 558 38,500 -840 Descending Kansas City Center
05:24PM 39.3389 -91.4486 37° Northeast 492 566 37,300 -1,080 Descending Kansas City Center
05:25PM 39.4467 -91.3411 38° Northeast 491 565 36,300 -1,020 Descending Kansas City Center
05:26PM 39.5542 -91.2353 37° Northeast 487 560 35,300 -1,020 Descending Kansas City Center
05:27PM 39.6608 -91.1286 38° Northeast 485 558 34,300 -1,020 Descending Kansas City Center
05:28PM 39.7719 -91.0181 37° Northeast 485 558 33,200 -660 Descending Kansas City Center
05:29PM 39.8783 -90.9131 37° Northeast 488 562 33,000 -120 Descending Kansas City Center
05:30PM 39.9847 -90.8033 38° Northeast 489 563 33,000  Level Kansas City Center
05:31PM 40.1114 -90.6750 38° Northeast 482 555 33,000  Level Kansas City Center
05:32PM 40.2175 -90.5678 38° Northeast 481 554 33,000  Level Chicago Center
05:32PM 40.2175 -90.5678 38° Northeast 482 555 33,000  Level Kansas City Center
05:33PM 40.3236 -90.4592 38° Northeast 482 555 33,000  Level Chicago Center
05:34PM 40.4303 -90.3497 38° Northeast 485 558 33,000 -60 Level Chicago Center
05:35PM 40.5492 -90.2281 38° Northeast 481 554 32,900 -900 Descending Chicago Center
05:36PM 40.6558 -90.1181 38° Northeast 486 559 31,200 -1,560 Descending Chicago Center
05:37PM 40.7578 -90.0144 38° Northeast 468 539 29,700 -1,500 Descending Chicago Center
05:38PM 40.8592 -89.9072 39° Northeast 467 537 28,100 -1,440 Descending Chicago Center
05:39PM 40.9572 -89.8033 39° Northeast 458 527 26,700 -1,380 Descending Chicago Center
05:40PM 41.0514 -89.7042 38° Northeast 448 516 25,300 -1,680 Descending Chicago Center
05:42PM 41.1631 -89.5789 40° Northeast 442 509 23,300 -1,920 Descending Chicago Center
05:43PM 41.2258 -89.4281 61° Northeast 469 540 21,400 -2,040 Descending Chicago Center
05:44PM 41.2853 -89.2822 61° Northeast 455 524 19,100 -2,040 Descending Chicago Center
05:45PM 41.3364 -89.1439 64° Northeast 417 480 17,300 -1,920 Descending Chicago Center
05:46PM 41.3936 -89.0064 61° Northeast 422 486 15,200 -2,220 Descending Chicago Center
05:47PM 41.4581 -88.8447 62° Northeast 413 475 12,800 -2,040 Descending Chicago Center
05:48PM 41.5089 -88.7147 62° Northeast 395 455 11,000 -900 Descending Chicago Center
05:49PM 41.5567 -88.5956 62° Northeast 369 425 11,000 -120 Level Chicago Center
05:50PM 41.6044 -88.4769 62° Northeast 361 415 10,800 -540 Descending Chicago Center
05:51PM 41.6639 -88.3717 53° Northeast 347 399 10,000 -420 Descending Chicago Center
05:52PM 41.7236 -88.2694 52° Northeast 345 397 10,000 -240 Level Chicago Center
05:53PM 41.7906 -88.1550 52° Northeast 327 376 9,600 -1,020 Descending Chicago Center
05:54PM 41.8378 -88.0736 52° Northeast 286 329 7,900 -1,080 Descending Chicago Center
05:55PM 41.8833 -87.9500 64° Northeast 245 282 7,000 -420 Descending Chicago TRACON
05:56PM 41.8833 -87.8667 90° East 229 264 7,000 -480 Level Chicago TRACON
05:57PM 41.8833 -87.8000 90° East 205 236 6,200 -1,200 Descending Chicago TRACON
05:58PM 41.8833 -87.7167 90° East 200 230 4,800 -1,140 Descending Chicago TRACON
05:59PM 41.9167 -87.6833 37° Northeast 192 221 4,000 -480 Descending Chicago TRACON
06:00PM 41.9667 -87.7167 334° Northwest 175 201 3,900 -120 Descending Chicago TRACON